Bukit Timah, Singapore
Current Conditions -  °F | °C
As of 3:00 PM on Friday 24 Oct 2014 (Local Time) from WSSL Reporting Station
Broken Clouds Broken Clouds  
Wind Chill: 91°   Ceiling: 30000
Heat Index: 93°   Visibility: 6mi
Dew Point: 64°   Wind: 7mph
Humidity: 41%   Direction: 110°ESE
Pressure: 29.77"   Gusts: NA
Location:  1.36°N, 103.72°E
Report Text: WSSL 240700Z 11006KT 080V140 9999 FEW024 BKN300 33/18 Q1008 RMK0630Z Q1008
Loading
Personal Weather Stations






























Interactive Weather Map
Tropical Storm Tracking
New forecast layout! Learn more

10-Day Weather Forecast

Advertisements
Track Severe Weather on mobile